sensor_id;sensor_type;location;lat;lon;timestamp;temperature;humidity
9772;DHT22;4925;52.588;13.370;2022-08-03T00:01:41;20.80;99.90
9772;DHT22;4925;52.588;13.370;2022-08-03T00:04:08;20.80;99.90
9772;DHT22;4925;52.588;13.370;2022-08-03T00:06:34;20.80;99.90
9772;DHT22;4925;52.588;13.370;2022-08-03T00:09:00;20.80;99.90
9772;DHT22;4925;52.588;13.370;2022-08-03T00:11:26;20.80;99.90
9772;DHT22;4925;52.588;13.370;2022-08-03T00:13:52;20.80;99.90
9772;DHT22;4925;52.588;13.370;2022-08-03T00:16:18;20.80;99.90
9772;DHT22;4925;52.588;13.370;2022-08-03T00:18:44;20.70;99.90
9772;DHT22;4925;52.588;13.370;2022-08-03T00:21:10;20.70;99.90
9772;DHT22;4925;52.588;13.370;2022-08-03T00:23:36;20.70;99.90
9772;DHT22;4925;52.588;13.370;2022-08-03T00:26:02;20.70;99.90
9772;DHT22;4925;52.588;13.370;2022-08-03T00:28:27;20.70;99.90
9772;DHT22;4925;52.588;13.370;2022-08-03T00:30:53;20.70;99.90
9772;DHT22;4925;52.588;13.370;2022-08-03T00:33:20;20.70;99.90
9772;DHT22;4925;52.588;13.370;2022-08-03T00:35:46;20.70;99.90
9772;DHT22;4925;52.588;13.370;2022-08-03T00:38:11;20.70;99.90
9772;DHT22;4925;52.588;13.370;2022-08-03T00:40:37;20.70;99.90
9772;DHT22;4925;52.588;13.370;2022-08-03T00:43:05;20.70;99.90
9772;DHT22;4925;52.588;13.370;2022-08-03T00:45:34;20.70;99.90
9772;DHT22;4925;52.588;13.370;2022-08-03T00:48:01;20.70;99.90
9772;DHT22;4925;52.588;13.370;2022-08-03T00:50:28;20.60;99.90
9772;DHT22;4925;52.588;13.370;2022-08-03T00:52:56;20.70;99.90
9772;DHT22;4925;52.588;13.370;2022-08-03T00:55:22;20.70;99.90
9772;DHT22;4925;52.588;13.370;2022-08-03T00:57:49;20.70;99.90
9772;DHT22;4925;52.588;13.370;2022-08-03T01:00:20;20.60;99.90
9772;DHT22;4925;52.588;13.370;2022-08-03T01:02:46;20.60;99.90
9772;DHT22;4925;52.588;13.370;2022-08-03T01:05:12;20.60;99.90
9772;DHT22;4925;52.588;13.370;2022-08-03T01:10:35;20.50;99.90
9772;DHT22;4925;52.588;13.370;2022-08-03T01:18:43;20.50;99.90
9772;DHT22;4925;52.588;13.370;2022-08-03T01:21:15;20.40;99.90
9772;DHT22;4925;52.588;13.370;2022-08-03T01:31:51;20.40;99.90
9772;DHT22;4925;52.588;13.370;2022-08-03T01:34:19;20.40;99.90
9772;DHT22;4925;52.588;13.370;2022-08-03T01:36:51;20.40;99.90
9772;DHT22;4925;52.588;13.370;2022-08-03T01:39:19;20.40;99.90
9772;DHT22;4925;52.588;13.370;2022-08-03T01:41:53;20.40;99.90
9772;DHT22;4925;52.588;13.370;2022-08-03T01:44:25;20.40;99.90
9772;DHT22;4925;52.588;13.370;2022-08-03T01:46:51;20.40;99.90
9772;DHT22;4925;52.588;13.370;2022-08-03T01:49:17;20.40;99.90
9772;DHT22;4925;52.588;13.370;2022-08-03T01:51:47;20.90;99.90
9772;DHT22;4925;52.588;13.370;2022-08-03T01:54:15;20.40;99.90
9772;DHT22;4925;52.588;13.370;2022-08-03T01:56:42;20.40;99.90
9772;DHT22;4925;52.588;13.370;2022-08-03T01:59:08;20.40;99.90
9772;DHT22;4925;52.588;13.370;2022-08-03T02:01:36;20.40;99.90
9772;DHT22;4925;52.588;13.370;2022-08-03T02:04:04;21.10;99.90
9772;DHT22;4925;52.588;13.370;2022-08-03T02:06:32;20.40;99.90
9772;DHT22;4925;52.588;13.370;2022-08-03T02:08:59;20.40;99.90
9772;DHT22;4925;52.588;13.370;2022-08-03T02:11:27;20.40;99.90
9772;DHT22;4925;52.588;13.370;2022-08-03T02:13:57;20.40;99.90
9772;DHT22;4925;52.588;13.370;2022-08-03T02:16:25;20.40;99.90
9772;DHT22;4925;52.588;13.370;2022-08-03T02:18:52;20.40;99.90
9772;DHT22;4925;52.588;13.370;2022-08-03T02:21:19;20.40;99.90
9772;DHT22;4925;52.588;13.370;2022-08-03T02:23:45;20.50;99.90
9772;DHT22;4925;52.588;13.370;2022-08-03T02:26:14;20.50;99.90
9772;DHT22;4925;52.588;13.370;2022-08-03T02:28:44;20.50;99.90
9772;DHT22;4925;52.588;13.370;2022-08-03T02:31:18;20.40;99.90
9772;DHT22;4925;52.588;13.370;2022-08-03T02:33:49;20.70;99.90
9772;DHT22;4925;52.588;13.370;2022-08-03T02:36:22;20.40;99.90
9772;DHT22;4925;52.588;13.370;2022-08-03T02:38:53;20.40;99.90
9772;DHT22;4925;52.588;13.370;2022-08-03T02:41:23;20.40;99.90
9772;DHT22;4925;52.588;13.370;2022-08-03T02:43:54;20.40;99.90
9772;DHT22;4925;52.588;13.370;2022-08-03T02:46:24;20.40;99.90
9772;DHT22;4925;52.588;13.370;2022-08-03T02:48:53;20.40;99.90
9772;DHT22;4925;52.588;13.370;2022-08-03T02:51:20;20.40;99.90
9772;DHT22;4925;52.588;13.370;2022-08-03T02:53:47;20.40;99.90
9772;DHT22;4925;52.588;13.370;2022-08-03T02:56:13;20.40;99.90
9772;DHT22;4925;52.588;13.370;2022-08-03T02:58:42;20.50;99.90
9772;DHT22;4925;52.588;13.370;2022-08-03T03:01:08;20.40;99.90
9772;DHT22;4925;52.588;13.370;2022-08-03T03:03:35;20.40;99.90
9772;DHT22;4925;52.588;13.370;2022-08-03T03:06:02;20.50;99.90
9772;DHT22;4925;52.588;13.370;2022-08-03T03:08:28;20.40;99.90
9772;DHT22;4925;52.588;13.370;2022-08-03T03:10:57;20.40;99.90
9772;DHT22;4925;52.588;13.370;2022-08-03T03:13:23;20.40;99.90
9772;DHT22;4925;52.588;13.370;2022-08-03T03:15:51;20.40;99.90
9772;DHT22;4925;52.588;13.370;2022-08-03T03:18:18;20.40;99.90
9772;DHT22;4925;52.588;13.370;2022-08-03T03:20:46;20.40;99.90
9772;DHT22;4925;52.588;13.370;2022-08-03T03:23:12;21.20;99.90
9772;DHT22;4925;52.588;13.370;2022-08-03T03:25:39;20.30;99.90
9772;DHT22;4925;52.588;13.370;2022-08-03T03:28:05;20.30;99.90
9772;DHT22;4925;52.588;13.370;2022-08-03T03:30:31;20.20;99.90
9772;DHT22;4925;52.588;13.370;2022-08-03T03:32:57;20.20;99.90
9772;DHT22;4925;52.588;13.370;2022-08-03T03:35:24;20.20;99.90
9772;DHT22;4925;52.588;13.370;2022-08-03T03:37:51;20.20;99.90
9772;DHT22;4925;52.588;13.370;2022-08-03T03:40:16;20.10;99.90
9772;DHT22;4925;52.588;13.370;2022-08-03T03:42:43;20.10;99.90
9772;DHT22;4925;52.588;13.370;2022-08-03T03:45:10;20.10;99.90
9772;DHT22;4925;52.588;13.370;2022-08-03T03:47:36;20.00;99.90
9772;DHT22;4925;52.588;13.370;2022-08-03T03:50:04;20.00;99.90
9772;DHT22;4925;52.588;13.370;2022-08-03T03:52:30;20.00;99.90
9772;DHT22;4925;52.588;13.370;2022-08-03T03:54:56;19.90;99.90
9772;DHT22;4925;52.588;13.370;2022-08-03T03:57:22;20.00;99.90
9772;DHT22;4925;52.588;13.370;2022-08-03T03:59:48;20.00;99.90
9772;DHT22;4925;52.588;13.370;2022-08-03T04:02:13;20.00;99.90
9772;DHT22;4925;52.588;13.370;2022-08-03T04:04:39;20.00;99.90
9772;DHT22;4925;52.588;13.370;2022-08-03T04:10:46;20.00;99.90
9772;DHT22;4925;52.588;13.370;2022-08-03T04:13:40;20.00;99.90
9772;DHT22;4925;52.588;13.370;2022-08-03T04:16:09;20.00;99.90
9772;DHT22;4925;52.588;13.370;2022-08-03T04:18:38;20.10;99.90
9772;DHT22;4925;52.588;13.370;2022-08-03T04:21:08;20.00;99.90
9772;DHT22;4925;52.588;13.370;2022-08-03T04:23:37;20.20;99.90
9772;DHT22;4925;52.588;13.370;2022-08-03T04:26:07;20.40;99.90
9772;DHT22;4925;52.588;13.370;2022-08-03T04:28:35;20.80;99.90
9772;DHT22;4925;52.588;13.370;2022-08-03T04:31:03;21.00;99.90
9772;DHT22;4925;52.588;13.370;2022-08-03T04:33:32;21.20;99.90
9772;DHT22;4925;52.588;13.370;2022-08-03T04:36:00;21.30;99.90
9772;DHT22;4925;52.588;13.370;2022-08-03T04:38:27;21.40;99.90
9772;DHT22;4925;52.588;13.370;2022-08-03T04:40:55;21.50;99.90
9772;DHT22;4925;52.588;13.370;2022-08-03T04:43:21;21.50;99.90
9772;DHT22;4925;52.588;13.370;2022-08-03T04:45:49;21.30;99.90
9772;DHT22;4925;52.588;13.370;2022-08-03T04:48:15;21.20;99.90
9772;DHT22;4925;52.588;13.370;2022-08-03T04:50:41;21.00;99.90
9772;DHT22;4925;52.588;13.370;2022-08-03T04:53:09;21.00;99.90
9772;DHT22;4925;52.588;13.370;2022-08-03T04:55:34;21.00;99.90
9772;DHT22;4925;52.588;13.370;2022-08-03T04:58:01;21.00;99.90
9772;DHT22;4925;52.588;13.370;2022-08-03T05:00:27;21.00;99.90
9772;DHT22;4925;52.588;13.370;2022-08-03T05:02:53;21.00;99.90
9772;DHT22;4925;52.588;13.370;2022-08-03T05:05:20;21.30;99.90
9772;DHT22;4925;52.588;13.370;2022-08-03T05:07:46;21.10;99.90
9772;DHT22;4925;52.588;13.370;2022-08-03T05:10:12;21.20;99.90
9772;DHT22;4925;52.588;13.370;2022-08-03T05:12:38;21.20;99.90
9772;DHT22;4925;52.588;13.370;2022-08-03T05:15:04;21.30;99.90
9772;DHT22;4925;52.588;13.370;2022-08-03T05:17:30;21.30;99.90
9772;DHT22;4925;52.588;13.370;2022-08-03T05:19:56;21.50;99.90
9772;DHT22;4925;52.588;13.370;2022-08-03T05:22:22;21.50;99.90
9772;DHT22;4925;52.588;13.370;2022-08-03T05:24:48;21.60;99.90
9772;DHT22;4925;52.588;13.370;2022-08-03T05:27:13;21.70;99.90
9772;DHT22;4925;52.588;13.370;2022-08-03T05:29:44;21.80;99.90
9772;DHT22;4925;52.588;13.370;2022-08-03T05:32:10;21.80;99.90
9772;DHT22;4925;52.588;13.370;2022-08-03T05:34:36;21.90;99.90
9772;DHT22;4925;52.588;13.370;2022-08-03T05:37:02;22.00;99.90
9772;DHT22;4925;52.588;13.370;2022-08-03T05:39:27;22.10;99.90
9772;DHT22;4925;52.588;13.370;2022-08-03T05:41:53;22.20;99.90
9772;DHT22;4925;52.588;13.370;2022-08-03T05:44:18;22.30;99.90
9772;DHT22;4925;52.588;13.370;2022-08-03T05:46:44;22.30;99.90
9772;DHT22;4925;52.588;13.370;2022-08-03T05:49:09;22.60;99.90
9772;DHT22;4925;52.588;13.370;2022-08-03T05:51:35;22.60;99.90
9772;DHT22;4925;52.588;13.370;2022-08-03T05:54:01;22.80;99.90
9772;DHT22;4925;52.588;13.370;2022-08-03T05:56:27;22.80;99.90
9772;DHT22;4925;52.588;13.370;2022-08-03T05:58:53;23.00;99.90
9772;DHT22;4925;52.588;13.370;2022-08-03T06:01:19;23.00;99.90
9772;DHT22;4925;52.588;13.370;2022-08-03T06:03:49;23.10;99.90
9772;DHT22;4925;52.588;13.370;2022-08-03T06:06:15;23.20;99.90
9772;DHT22;4925;52.588;13.370;2022-08-03T06:11:07;23.50;99.90
9772;DHT22;4925;52.588;13.370;2022-08-03T06:13:34;23.60;99.80
9772;DHT22;4925;52.588;13.370;2022-08-03T06:15:59;23.70;99.60
9772;DHT22;4925;52.588;13.370;2022-08-03T06:18:25;23.80;99.20
9772;DHT22;4925;52.588;13.370;2022-08-03T06:20:51;23.90;98.40
9772;DHT22;4925;52.588;13.370;2022-08-03T06:23:17;24.10;98.80
9772;DHT22;4925;52.588;13.370;2022-08-03T06:25:42;24.10;97.10
9772;DHT22;4925;52.588;13.370;2022-08-03T06:28:08;24.30;97.00
9772;DHT22;4925;52.588;13.370;2022-08-03T06:30:34;24.50;95.80
9772;DHT22;4925;52.588;13.370;2022-08-03T06:33:00;24.50;96.20
9772;DHT22;4925;52.588;13.370;2022-08-03T06:35:26;24.60;95.90
9772;DHT22;4925;52.588;13.370;2022-08-03T06:37:52;24.80;95.80
9772;DHT22;4925;52.588;13.370;2022-08-03T06:40:22;24.90;95.00
9772;DHT22;4925;52.588;13.370;2022-08-03T06:43:01;25.00;95.30
9772;DHT22;4925;52.588;13.370;2022-08-03T06:45:28;25.10;95.10
9772;DHT22;4925;52.588;13.370;2022-08-03T06:48:03;25.20;94.80
9772;DHT22;4925;52.588;13.370;2022-08-03T06:50:30;25.40;94.50
9772;DHT22;4925;52.588;13.370;2022-08-03T06:52:56;25.50;94.70
9772;DHT22;4925;52.588;13.370;2022-08-03T06:55:21;25.60;94.50
9772;DHT22;4925;52.588;13.370;2022-08-03T06:57:47;25.70;94.30
9772;DHT22;4925;52.588;13.370;2022-08-03T07:00:13;25.90;93.80
9772;DHT22;4925;52.588;13.370;2022-08-03T07:02:39;26.00;93.80
9772;DHT22;4925;52.588;13.370;2022-08-03T07:05:05;26.00;93.10
9772;DHT22;4925;52.588;13.370;2022-08-03T07:07:31;26.10;93.20
9772;DHT22;4925;52.588;13.370;2022-08-03T07:09:57;26.30;92.60
9772;DHT22;4925;52.588;13.370;2022-08-03T07:12:23;26.40;93.10
9772;DHT22;4925;52.588;13.370;2022-08-03T07:14:48;26.70;93.20
9772;DHT22;4925;52.588;13.370;2022-08-03T07:17:14;26.60;93.00
9772;DHT22;4925;52.588;13.370;2022-08-03T07:19:39;26.80;92.20
9772;DHT22;4925;52.588;13.370;2022-08-03T07:22:05;26.80;92.20
9772;DHT22;4925;52.588;13.370;2022-08-03T07:24:31;27.00;92.10
9772;DHT22;4925;52.588;13.370;2022-08-03T07:26:56;27.10;92.10
9772;DHT22;4925;52.588;13.370;2022-08-03T07:29:22;27.10;91.60
9772;DHT22;4925;52.588;13.370;2022-08-03T07:31:47;27.20;91.80
9772;DHT22;4925;52.588;13.370;2022-08-03T07:34:14;27.40;91.30
9772;DHT22;4925;52.588;13.370;2022-08-03T07:36:39;27.40;90.90
9772;DHT22;4925;52.588;13.370;2022-08-03T07:39:05;27.40;90.20
9772;DHT22;4925;52.588;13.370;2022-08-03T07:41:30;27.50;90.30
9772;DHT22;4925;52.588;13.370;2022-08-03T07:43:56;27.50;90.00
9772;DHT22;4925;52.588;13.370;2022-08-03T07:46:22;27.50;89.70
9772;DHT22;4925;52.588;13.370;2022-08-03T07:48:47;27.50;88.30
9772;DHT22;4925;52.588;13.370;2022-08-03T07:51:13;27.50;89.00
9772;DHT22;4925;52.588;13.370;2022-08-03T07:53:38;27.60;89.10
9772;DHT22;4925;52.588;13.370;2022-08-03T07:56:04;27.80;87.80
9772;DHT22;4925;52.588;13.370;2022-08-03T07:58:30;27.90;88.70
9772;DHT22;4925;52.588;13.370;2022-08-03T08:00:55;28.00;87.80
9772;DHT22;4925;52.588;13.370;2022-08-03T08:03:21;28.10;87.40
9772;DHT22;4925;52.588;13.370;2022-08-03T08:05:47;28.10;87.00
9772;DHT22;4925;52.588;13.370;2022-08-03T08:08:12;28.30;85.80
9772;DHT22;4925;52.588;13.370;2022-08-03T08:10:38;28.30;84.40
9772;DHT22;4925;52.588;13.370;2022-08-03T08:13:04;28.40;84.70
9772;DHT22;4925;52.588;13.370;2022-08-03T08:15:30;28.50;84.80
9772;DHT22;4925;52.588;13.370;2022-08-03T08:17:59;28.60;83.30
9772;DHT22;4925;52.588;13.370;2022-08-03T08:20:27;28.60;82.60
9772;DHT22;4925;52.588;13.370;2022-08-03T08:23:00;28.70;80.60
9772;DHT22;4925;52.588;13.370;2022-08-03T08:25:26;28.70;82.10
9772;DHT22;4925;52.588;13.370;2022-08-03T08:27:52;28.80;82.70
9772;DHT22;4925;52.588;13.370;2022-08-03T08:30:20;28.80;78.50
9772;DHT22;4925;52.588;13.370;2022-08-03T08:32:46;28.80;77.80
9772;DHT22;4925;52.588;13.370;2022-08-03T08:35:12;28.90;76.40
9772;DHT22;4925;52.588;13.370;2022-08-03T08:37:38;28.90;77.20
9772;DHT22;4925;52.588;13.370;2022-08-03T08:40:06;28.90;77.00
9772;DHT22;4925;52.588;13.370;2022-08-03T08:42:32;29.00;76.90
9772;DHT22;4925;52.588;13.370;2022-08-03T08:45:02;29.10;75.10
9772;DHT22;4925;52.588;13.370;2022-08-03T08:47:30;29.10;75.90
9772;DHT22;4925;52.588;13.370;2022-08-03T08:49:57;29.20;75.80
9772;DHT22;4925;52.588;13.370;2022-08-03T08:52:24;29.30;75.70
9772;DHT22;4925;52.588;13.370;2022-08-03T08:54:53;29.40;75.80
9772;DHT22;4925;52.588;13.370;2022-08-03T08:57:22;29.50;75.10
9772;DHT22;4925;52.588;13.370;2022-08-03T08:59:50;29.50;74.50
9772;DHT22;4925;52.588;13.370;2022-08-03T09:02:16;30.10;74.80
9772;DHT22;4925;52.588;13.370;2022-08-03T09:04:42;29.70;74.60
9772;DHT22;4925;52.588;13.370;2022-08-03T09:07:09;29.60;72.60
9772;DHT22;4925;52.588;13.370;2022-08-03T09:09:35;29.70;73.10
9772;DHT22;4925;52.588;13.370;2022-08-03T09:12:01;29.80;73.50
9772;DHT22;4925;52.588;13.370;2022-08-03T09:14:28;29.90;72.70
9772;DHT22;4925;52.588;13.370;2022-08-03T09:16:59;30.00;72.20
9772;DHT22;4925;52.588;13.370;2022-08-03T09:19:29;30.00;72.10
9772;DHT22;4925;52.588;13.370;2022-08-03T09:22:15;30.20;71.20
9772;DHT22;4925;52.588;13.370;2022-08-03T09:24:59;30.10;70.70
9772;DHT22;4925;52.588;13.370;2022-08-03T09:27:24;30.30;70.00
9772;DHT22;4925;52.588;13.370;2022-08-03T09:29:52;30.30;70.70
9772;DHT22;4925;52.588;13.370;2022-08-03T09:32:22;30.40;70.60
9772;DHT22;4925;52.588;13.370;2022-08-03T09:34:50;30.60;69.60
9772;DHT22;4925;52.588;13.370;2022-08-03T09:37:17;30.70;68.90
9772;DHT22;4925;52.588;13.370;2022-08-03T09:39:43;30.70;68.30
9772;DHT22;4925;52.588;13.370;2022-08-03T09:42:13;30.80;68.80
9772;DHT22;4925;52.588;13.370;2022-08-03T09:44:47;30.80;68.30
9772;DHT22;4925;52.588;13.370;2022-08-03T09:47:16;31.00;67.90
9772;DHT22;4925;52.588;13.370;2022-08-03T09:50:03;31.10;67.00
9772;DHT22;4925;52.588;13.370;2022-08-03T09:52:36;31.30;67.20
9772;DHT22;4925;52.588;13.370;2022-08-03T09:55:13;31.30;66.90
9772;DHT22;4925;52.588;13.370;2022-08-03T09:57:39;31.30;65.90
9772;DHT22;4925;52.588;13.370;2022-08-03T10:00:13;31.40;64.40
9772;DHT22;4925;52.588;13.370;2022-08-03T10:02:41;31.40;64.70
9772;DHT22;4925;52.588;13.370;2022-08-03T10:05:08;31.40;64.30
9772;DHT22;4925;52.588;13.370;2022-08-03T10:07:48;31.30;65.10
9772;DHT22;4925;52.588;13.370;2022-08-03T10:10:15;31.30;63.90
9772;DHT22;4925;52.588;13.370;2022-08-03T10:12:42;31.40;64.90
9772;DHT22;4925;52.588;13.370;2022-08-03T10:15:09;31.60;65.00
9772;DHT22;4925;52.588;13.370;2022-08-03T10:17:36;32.00;63.10
9772;DHT22;4925;52.588;13.370;2022-08-03T10:20:04;32.00;63.10
9772;DHT22;4925;52.588;13.370;2022-08-03T10:22:35;32.00;63.90
9772;DHT22;4925;52.588;13.370;2022-08-03T10:25:07;32.30;63.30
9772;DHT22;4925;52.588;13.370;2022-08-03T10:27:36;32.40;62.10
9772;DHT22;4925;52.588;13.370;2022-08-03T10:30:10;32.50;60.70
9772;DHT22;4925;52.588;13.370;2022-08-03T10:32:58;32.40;61.30
9772;DHT22;4925;52.588;13.370;2022-08-03T10:35:25;32.50;60.50
9772;DHT22;4925;52.588;13.370;2022-08-03T10:37:55;32.50;61.00
9772;DHT22;4925;52.588;13.370;2022-08-03T10:40:23;32.70;60.00
9772;DHT22;4925;52.588;13.370;2022-08-03T10:42:54;32.90;60.10
9772;DHT22;4925;52.588;13.370;2022-08-03T10:45:24;33.00;59.90
9772;DHT22;4925;52.588;13.370;2022-08-03T10:47:51;33.30;59.60
9772;DHT22;4925;52.588;13.370;2022-08-03T10:50:18;33.60;59.40
9772;DHT22;4925;52.588;13.370;2022-08-03T10:53:03;33.90;58.90
9772;DHT22;4925;52.588;13.370;2022-08-03T11:01:04;34.10;57.10
9772;DHT22;4925;52.588;13.370;2022-08-03T11:03:30;34.00;56.80
9772;DHT22;4925;52.588;13.370;2022-08-03T11:06:16;34.20;56.50
9772;DHT22;4925;52.588;13.370;2022-08-03T11:08:46;34.40;56.30
9772;DHT22;4925;52.588;13.370;2022-08-03T11:13:59;34.60;56.00
9772;DHT22;4925;52.588;13.370;2022-08-03T11:16:27;34.90;54.90
9772;DHT22;4925;52.588;13.370;2022-08-03T11:19:01;35.20;54.10
9772;DHT22;4925;52.588;13.370;2022-08-03T11:30:02;36.30;52.70
9772;DHT22;4925;52.588;13.370;2022-08-03T11:35:27;36.10;51.60
9772;DHT22;4925;52.588;13.370;2022-08-03T11:43:01;36.90;50.50
9772;DHT22;4925;52.588;13.370;2022-08-03T11:45:27;37.30;50.20
9772;DHT22;4925;52.588;13.370;2022-08-03T11:47:53;37.50;48.70
9772;DHT22;4925;52.588;13.370;2022-08-03T11:50:20;37.60;48.80
9772;DHT22;4925;52.588;13.370;2022-08-03T11:52:47;37.90;48.40
9772;DHT22;4925;52.588;13.370;2022-08-03T11:55:14;38.10;48.30
9772;DHT22;4925;52.588;13.370;2022-08-03T11:57:40;38.20;47.60
9772;DHT22;4925;52.588;13.370;2022-08-03T12:00:29;38.60;47.50
9772;DHT22;4925;52.588;13.370;2022-08-03T12:08:02;39.10;44.80
9772;DHT22;4925;52.588;13.370;2022-08-03T12:10:28;39.20;44.70
9772;DHT22;4925;52.588;13.370;2022-08-03T12:12:58;39.00;44.20
9772;DHT22;4925;52.588;13.370;2022-08-03T12:15:28;38.80;44.40
9772;DHT22;4925;52.588;13.370;2022-08-03T12:17:55;38.90;44.50
9772;DHT22;4925;52.588;13.370;2022-08-03T12:20:24;39.00;43.90
9772;DHT22;4925;52.588;13.370;2022-08-03T12:22:50;39.30;43.80
9772;DHT22;4925;52.588;13.370;2022-08-03T12:25:24;39.40;43.30
9772;DHT22;4925;52.588;13.370;2022-08-03T12:27:50;39.60;42.90
9772;DHT22;4925;52.588;13.370;2022-08-03T12:30:17;39.60;42.10
9772;DHT22;4925;52.588;13.370;2022-08-03T12:32:43;39.60;42.80
9772;DHT22;4925;52.588;13.370;2022-08-03T12:35:10;39.80;42.60
9772;DHT22;4925;52.588;13.370;2022-08-03T12:37:47;39.70;42.40
9772;DHT22;4925;52.588;13.370;2022-08-03T12:40:13;39.80;42.10
9772;DHT22;4925;52.588;13.370;2022-08-03T12:42:40;39.70;41.60
9772;DHT22;4925;52.588;13.370;2022-08-03T12:45:21;39.60;41.60
9772;DHT22;4925;52.588;13.370;2022-08-03T12:50:26;38.90;42.00
9772;DHT22;4925;52.588;13.370;2022-08-03T12:52:52;38.50;42.20
9772;DHT22;4925;52.588;13.370;2022-08-03T12:55:21;38.10;42.90
9772;DHT22;4925;52.588;13.370;2022-08-03T12:57:47;38.00;43.30
9772;DHT22;4925;52.588;13.370;2022-08-03T13:00:15;38.00;43.50
9772;DHT22;4925;52.588;13.370;2022-08-03T13:02:42;37.90;43.80
9772;DHT22;4925;52.588;13.370;2022-08-03T13:05:14;38.00;43.40
9772;DHT22;4925;52.588;13.370;2022-08-03T13:07:44;37.80;43.60
9772;DHT22;4925;52.588;13.370;2022-08-03T13:10:11;38.60;44.20
9772;DHT22;4925;52.588;13.370;2022-08-03T13:12:49;37.60;43.90
9772;DHT22;4925;52.588;13.370;2022-08-03T13:15:15;37.40;44.10
9772;DHT22;4925;52.588;13.370;2022-08-03T13:17:41;37.20;44.70
9772;DHT22;4925;52.588;13.370;2022-08-03T13:20:07;37.10;44.40
9772;DHT22;4925;52.588;13.370;2022-08-03T13:22:33;36.90;44.50
9772;DHT22;4925;52.588;13.370;2022-08-03T13:24:59;36.80;44.80
9772;DHT22;4925;52.588;13.370;2022-08-03T13:27:26;36.70;45.20
9772;DHT22;4925;52.588;13.370;2022-08-03T13:29:52;36.50;45.30
9772;DHT22;4925;52.588;13.370;2022-08-03T13:32:18;36.40;45.70
9772;DHT22;4925;52.588;13.370;2022-08-03T13:34:44;36.30;46.00
9772;DHT22;4925;52.588;13.370;2022-08-03T13:37:11;36.10;45.70
9772;DHT22;4925;52.588;13.370;2022-08-03T13:39:37;35.90;46.20
9772;DHT22;4925;52.588;13.370;2022-08-03T13:42:03;35.90;46.20
9772;DHT22;4925;52.588;13.370;2022-08-03T13:44:30;35.90;46.40
9772;DHT22;4925;52.588;13.370;2022-08-03T13:46:56;35.90;46.50
9772;DHT22;4925;52.588;13.370;2022-08-03T13:49:21;35.90;46.40
9772;DHT22;4925;52.588;13.370;2022-08-03T13:51:47;35.90;46.40
9772;DHT22;4925;52.588;13.370;2022-08-03T13:54:12;35.80;46.40
9772;DHT22;4925;52.588;13.370;2022-08-03T13:56:38;35.60;45.90
9772;DHT22;4925;52.588;13.370;2022-08-03T13:59:03;35.70;46.20
9772;DHT22;4925;52.588;13.370;2022-08-03T14:01:30;35.60;46.60
9772;DHT22;4925;52.588;13.370;2022-08-03T14:03:56;35.50;47.00
9772;DHT22;4925;52.588;13.370;2022-08-03T14:06:23;35.40;46.90
9772;DHT22;4925;52.588;13.370;2022-08-03T14:08:49;35.30;46.30
9772;DHT22;4925;52.588;13.370;2022-08-03T14:11:16;35.30;46.90
9772;DHT22;4925;52.588;13.370;2022-08-03T14:13:42;35.30;47.10
9772;DHT22;4925;52.588;13.370;2022-08-03T14:16:08;35.30;47.30
9772;DHT22;4925;52.588;13.370;2022-08-03T14:18:34;35.20;47.60
9772;DHT22;4925;52.588;13.370;2022-08-03T14:21:04;35.20;47.90
9772;DHT22;4925;52.588;13.370;2022-08-03T14:23:30;35.00;47.80
9772;DHT22;4925;52.588;13.370;2022-08-03T14:25:56;34.90;48.00
9772;DHT22;4925;52.588;13.370;2022-08-03T14:28:22;35.60;48.80
9772;DHT22;4925;52.588;13.370;2022-08-03T14:30:49;34.80;48.30
9772;DHT22;4925;52.588;13.370;2022-08-03T14:33:14;34.70;48.70
9772;DHT22;4925;52.588;13.370;2022-08-03T14:35:40;34.50;48.30
9772;DHT22;4925;52.588;13.370;2022-08-03T14:38:06;34.40;49.10
9772;DHT22;4925;52.588;13.370;2022-08-03T14:40:31;34.30;48.30
9772;DHT22;4925;52.588;13.370;2022-08-03T14:42:57;34.40;49.20
9772;DHT22;4925;52.588;13.370;2022-08-03T14:45:23;34.30;49.30
9772;DHT22;4925;52.588;13.370;2022-08-03T14:47:48;34.10;49.70
9772;DHT22;4925;52.588;13.370;2022-08-03T14:50:15;34.10;49.80
9772;DHT22;4925;52.588;13.370;2022-08-03T14:52:41;34.10;49.90
9772;DHT22;4925;52.588;13.370;2022-08-03T14:55:06;34.30;50.00
9772;DHT22;4925;52.588;13.370;2022-08-03T14:57:32;34.30;49.80
9772;DHT22;4925;52.588;13.370;2022-08-03T14:59:58;34.40;48.90
9772;DHT22;4925;52.588;13.370;2022-08-03T15:02:24;34.40;49.40
9772;DHT22;4925;52.588;13.370;2022-08-03T15:04:49;34.40;49.20
9772;DHT22;4925;52.588;13.370;2022-08-03T15:07:15;34.30;49.00
9772;DHT22;4925;52.588;13.370;2022-08-03T15:09:40;34.20;49.00
9772;DHT22;4925;52.588;13.370;2022-08-03T15:12:06;34.20;49.60
9772;DHT22;4925;52.588;13.370;2022-08-03T15:14:32;34.10;49.90
9772;DHT22;4925;52.588;13.370;2022-08-03T15:16:58;34.10;50.20
9772;DHT22;4925;52.588;13.370;2022-08-03T15:19:23;34.10;49.90
9772;DHT22;4925;52.588;13.370;2022-08-03T15:21:49;34.10;50.60
9772;DHT22;4925;52.588;13.370;2022-08-03T15:24:15;34.10;50.50
9772;DHT22;4925;52.588;13.370;2022-08-03T15:26:40;34.10;50.30
9772;DHT22;4925;52.588;13.370;2022-08-03T15:29:06;34.10;49.70
9772;DHT22;4925;52.588;13.370;2022-08-03T15:31:32;34.10;50.30
9772;DHT22;4925;52.588;13.370;2022-08-03T15:33:58;34.00;50.20
9772;DHT22;4925;52.588;13.370;2022-08-03T15:36:24;34.00;50.20
9772;DHT22;4925;52.588;13.370;2022-08-03T15:38:50;34.00;49.60
9772;DHT22;4925;52.588;13.370;2022-08-03T15:41:16;34.00;50.10
9772;DHT22;4925;52.588;13.370;2022-08-03T15:43:41;34.00;50.40
9772;DHT22;4925;52.588;13.370;2022-08-03T15:46:08;33.90;50.70
9772;DHT22;4925;52.588;13.370;2022-08-03T15:48:33;33.90;50.10
9772;DHT22;4925;52.588;13.370;2022-08-03T15:50:59;34.00;50.20
9772;DHT22;4925;52.588;13.370;2022-08-03T15:53:24;34.20;50.70
9772;DHT22;4925;52.588;13.370;2022-08-03T15:55:50;33.90;50.20
9772;DHT22;4925;52.588;13.370;2022-08-03T15:58:16;33.80;50.60
9772;DHT22;4925;52.588;13.370;2022-08-03T16:00:42;33.80;50.20
9772;DHT22;4925;52.588;13.370;2022-08-03T16:03:08;33.80;50.70
9772;DHT22;4925;52.588;13.370;2022-08-03T16:05:35;33.80;50.60
9772;DHT22;4925;52.588;13.370;2022-08-03T16:08:01;33.70;50.80
9772;DHT22;4925;52.588;13.370;2022-08-03T16:10:26;33.80;50.40
9772;DHT22;4925;52.588;13.370;2022-08-03T16:12:55;33.80;51.00
9772;DHT22;4925;52.588;13.370;2022-08-03T16:15:20;33.80;50.80
9772;DHT22;4925;52.588;13.370;2022-08-03T16:17:46;33.60;50.70
9772;DHT22;4925;52.588;13.370;2022-08-03T16:20:12;33.60;50.30
9772;DHT22;4925;52.588;13.370;2022-08-03T16:22:42;33.50;50.80
9772;DHT22;4925;52.588;13.370;2022-08-03T16:25:09;33.50;51.30
9772;DHT22;4925;52.588;13.370;2022-08-03T16:27:35;33.50;51.40
9772;DHT22;4925;52.588;13.370;2022-08-03T16:30:00;33.80;51.00
9772;DHT22;4925;52.588;13.370;2022-08-03T16:32:26;33.80;51.50
9772;DHT22;4925;52.588;13.370;2022-08-03T16:34:51;33.90;51.40
9772;DHT22;4925;52.588;13.370;2022-08-03T16:37:17;34.00;51.00
9772;DHT22;4925;52.588;13.370;2022-08-03T16:39:43;34.20;50.70
9772;DHT22;4925;52.588;13.370;2022-08-03T16:42:08;34.20;51.20